Time,TemperatureF,DewpointF,PressureIn,WindDirection,WindDirectionDegrees,WindSpeedMPH,WindSpeedGustMPH,Humidity,HourlyPrecipIn,Conditions,Clouds,dailyrainin,SolarRadiationWatts/m^2,SoftwareType,DateUTC
2013-05-30 00:01:00,59.6,35.3,29.75,NW,325,5.0,7.0,40,0.00,,CLR,0.00,0.00,VWS V14.01,2013-05-30 07:01:00,
2013-05-30 00:06:00,59.4,35.1,29.75,NW,311,0.0,5.0,40,0.00,,CLR,0.00,0.00,VWS V14.01,2013-05-30 07:06:00,
2013-05-30 00:11:00,59.0,35.3,29.76,WNW,300,0.0,2.0,41,0.00,,CLR,0.00,0.00,VWS V14.01,2013-05-30 07:11:00,
2013-05-30 00:16:00,58.7,35.1,29.76,WNW,300,0.0,1.0,41,0.00,,CLR,0.00,0.00,VWS V14.01,2013-05-30 07:16:00,
2013-05-30 00:21:00,58.4,34.8,29.76,WNW,300,0.0,1.0,41,0.00,,CLR,0.00,0.00,VWS V14.01,2013-05-30 07:21:00,
2013-05-30 00:26:00,58.0,35.1,29.76,WNW,300,0.0,1.0,42,0.00,,CLR,0.00,0.00,VWS V14.01,2013-05-30 07:26:00,
2013-05-30 00:31:00,57.7,35.4,29.76,WNW,292,1.0,3.0,43,0.00,,CLR,0.00,0.00,VWS V14.01,2013-05-30 07:31:00,
2013-05-30 00:36:00,57.4,35.1,29.76,NW,307,2.0,4.0,43,0.00,,CLR,0.00,0.00,VWS V14.01,2013-05-30 07:36:00,
2013-05-30 00:41:00,57.2,35.5,29.76,NW,307,0.0,2.0,44,0.00,,CLR,0.00,0.00,VWS V14.01,2013-05-30 07:41:00,
2013-05-30 00:46:00,57.0,35.3,29.76,NW,307,0.0,2.0,44,0.00,,CLR,0.00,0.00,VWS V14.01,2013-05-30 07:46:00,
2013-05-30 00:51:00,56.7,35.0,29.76,NW,307,0.0,2.0,44,0.00,,CLR,0.00,0.00,VWS V14.01,2013-05-30 07:51:00,
2013-05-30 00:56:00,56.5,34.9,29.76,NW,307,0.0,0.0,44,0.00,,CLR,0.00,0.00,VWS V14.01,2013-05-30 07:56:00,
2013-05-30 01:01:00,56.3,34.7,29.76,NW,307,0.0,0.0,44,0.00,,CLR,0.00,0.00,VWS V14.01,2013-05-30 08:01:00,
2013-05-30 01:06:00,56.1,34.5,29.77,NW,307,0.0,0.0,44,0.00,,CLR,0.00,0.00,VWS V14.01,2013-05-30 08:06:00,
2013-05-30 01:11:00,55.2,34.2,29.77,NW,307,0.0,1.0,45,0.00,,CLR,0.00,0.00,VWS V14.01,2013-05-30 08:11:00,
2013-05-30 01:16:00,54.5,34.7,29.77,NW,307,1.0,1.0,47,0.00,,CLR,0.00,0.00,VWS V14.01,2013-05-30 08:16:00,
2013-05-30 01:21:00,54.1,34.9,29.77,NW,307,0.0,0.0,48,0.00,,CLR,0.00,0.00,VWS V14.01,2013-05-30 08:21:00,
2013-05-30 01:26:00,53.9,34.7,29.77,NW,307,1.0,1.0,48,0.00,,CLR,0.00,0.00,VWS V14.01,2013-05-30 08:26:00,
2013-05-30 01:31:00,53.6,34.4,29.77,NW,307,0.0,2.0,48,0.00,,CLR,0.00,0.00,VWS V14.01,2013-05-30 08:31:00,
2013-05-30 01:36:00,53.3,34.1,29.77,NW,307,0.0,1.0,48,0.00,,CLR,0.00,0.00,VWS V14.01,2013-05-30 08:36:00,
2013-05-30 01:41:00,52.8,34.2,29.77,NW,307,0.0,0.0,49,0.00,,CLR,0.00,0.00,VWS V14.01,2013-05-30 08:41:00,
2013-05-30 01:46:00,52.5,33.9,29.77,NW,307,0.0,0.0,49,0.00,,CLR,0.00,0.00,VWS V14.01,2013-05-30 08:46:00,
2013-05-30 01:51:00,52.2,34.1,29.77,NW,307,0.0,0.0,50,0.00,,CLR,0.00,0.00,VWS V14.01,2013-05-30 08:51:00,
2013-05-30 01:56:00,51.9,34.4,29.77,NW,307,0.0,0.0,51,0.00,,CLR,0.00,0.00,VWS V14.01,2013-05-30 08:56:00,
2013-05-30 02:01:00,51.7,34.2,29.77,NW,307,0.0,0.0,51,0.00,,CLR,0.00,0.00,VWS V14.01,2013-05-30 09:01:00,
2013-05-30 02:06:00,51.5,34.0,29.77,NW,307,0.0,0.0,51,0.00,,CLR,0.00,0.00,VWS V14.01,2013-05-30 09:06:00,
2013-05-30 02:11:00,51.2,34.2,29.77,NW,307,0.0,0.0,52,0.00,,CLR,0.00,0.00,VWS V14.01,2013-05-30 09:11:00,
2013-05-30 02:16:00,51.0,34.5,29.78,NW,307,0.0,1.0,53,0.00,,CLR,0.00,0.00,VWS V14.01,2013-05-30 09:16:00,
2013-05-30 02:21:00,51.0,34.5,29.77,NW,307,0.0,1.0,53,0.00,,CLR,0.00,0.00,VWS V14.01,2013-05-30 09:21:00,
2013-05-30 02:26:00,51.0,34.5,29.78,NW,307,0.0,0.0,53,0.00,,CLR,0.00,0.00,VWS V14.01,2013-05-30 09:26:00,
2013-05-30 02:31:00,50.7,34.2,29.78,NW,307,0.0,1.0,53,0.00,,CLR,0.00,0.00,VWS V14.01,2013-05-30 09:31:00,
2013-05-30 02:36:00,50.3,34.3,29.78,NW,307,0.0,0.0,54,0.00,,CLR,0.00,0.00,VWS V14.01,2013-05-30 09:36:00,
2013-05-30 02:41:00,50.0,34.5,29.78,NW,307,0.0,1.0,55,0.00,,CLR,0.00,0.00,VWS V14.01,2013-05-30 09:41:00,
2013-05-30 02:46:00,49.7,34.7,29.78,NW,307,0.0,1.0,56,0.00,,CLR,0.00,0.00,VWS V14.01,2013-05-30 09:46:00,
2013-05-30 02:51:00,49.7,34.7,29.78,NW,307,0.0,2.0,56,0.00,,CLR,0.00,0.00,VWS V14.01,2013-05-30 09:51:00,
2013-05-30 02:56:00,49.9,35.3,29.78,NW,307,1.0,2.0,57,0.00,,CLR,0.00,0.00,VWS V14.01,2013-05-30 09:56:00,
2013-05-30 03:01:00,50.1,35.5,29.78,NW,307,0.0,1.0,57,0.00,,CLR,0.00,0.00,VWS V14.01,2013-05-30 10:01:00,
2013-05-30 03:06:00,50.0,34.5,29.78,NW,307,1.0,2.0,55,0.00,,CLR,0.00,0.00,VWS V14.01,2013-05-30 10:06:00,
2013-05-30 03:11:00,49.5,34.0,29.79,NW,307,0.0,0.0,55,0.00,,CLR,0.00,0.00,VWS V14.01,2013-05-30 10:11:00,
2013-05-30 03:16:00,49.1,34.5,29.78,NW,307,0.0,0.0,57,0.00,,CLR,0.00,0.00,VWS V14.01,2013-05-30 10:16:00,
2013-05-30 03:21:00,49.0,34.9,29.79,NW,307,0.0,0.0,58,0.00,,CLR,0.00,0.00,VWS V14.01,2013-05-30 10:21:00,
2013-05-30 03:26:00,49.0,35.3,29.79,NW,307,1.0,1.0,59,0.00,,CLR,0.00,0.00,VWS V14.01,2013-05-30 10:26:00,
2013-05-30 03:31:00,48.9,35.2,29.79,NW,307,0.0,1.0,59,0.00,,CLR,0.00,0.00,VWS V14.01,2013-05-30 10:31:00,
2013-05-30 03:36:00,48.8,34.7,29.79,NW,307,0.0,0.0,58,0.00,,CLR,0.00,0.00,VWS V14.01,2013-05-30 10:36:00,
2013-05-30 03:41:00,48.7,34.6,29.79,NW,307,0.0,0.0,58,0.00,,CLR,0.00,0.00,VWS V14.01,2013-05-30 10:41:00,
2013-05-30 03:46:00,48.5,34.4,29.79,NW,307,0.0,0.0,58,0.00,,CLR,0.00,0.00,VWS V14.01,2013-05-30 10:46:00,
2013-05-30 03:51:00,48.3,34.2,29.79,NW,307,0.0,0.0,58,0.00,,CLR,0.00,0.00,VWS V14.01,2013-05-30 10:51:00,
2013-05-30 03:56:00,47.9,34.7,29.79,NW,307,0.0,0.0,60,0.00,,CLR,0.00,0.00,VWS V14.01,2013-05-30 10:56:00,
2013-05-30 04:01:00,47.7,34.5,29.79,NW,307,0.0,0.0,60,0.00,,CLR,0.00,0.00,VWS V14.01,2013-05-30 11:01:00,
2013-05-30 04:06:00,47.6,34.4,29.80,NW,307,0.0,1.0,60,0.00,,CLR,0.00,0.00,VWS V14.01,2013-05-30 11:06:00,
2013-05-30 04:11:00,47.5,35.1,29.80,NW,307,0.0,0.0,62,0.00,,CLR,0.00,0.00,VWS V14.01,2013-05-30 11:11:00,
2013-05-30 04:16:00,47.4,34.6,29.80,NW,307,0.0,0.0,61,0.00,,CLR,0.00,0.00,VWS V14.01,2013-05-30 11:16:00,
2013-05-30 04:21:00,47.3,34.1,29.80,East,95,0.0,1.0,60,0.00,,CLR,0.00,0.00,VWS V14.01,2013-05-30 11:21:00,
2013-05-30 04:26:00,47.2,34.9,29.80,East,95,0.0,0.0,62,0.00,,CLR,0.00,0.00,VWS V14.01,2013-05-30 11:26:00,
2013-05-30 04:31:00,46.9,35.4,29.80,East,95,0.0,0.0,64,0.00,,CLR,0.00,0.00,VWS V14.01,2013-05-30 11:31:00,
2013-05-30 04:36:00,46.7,35.2,29.80,East,95,0.0,0.0,64,0.00,,CLR,0.00,0.00,VWS V14.01,2013-05-30 11:36:00,
2013-05-30 04:42:00,46.4,34.5,29.80,East,95,0.0,0.0,63,0.00,,CLR,0.00,0.00,VWS V14.01,2013-05-30 11:42:00,
2013-05-30 04:47:00,46.1,34.6,29.80,East,95,0.0,0.0,64,0.00,,CLR,0.00,0.00,VWS V14.01,2013-05-30 11:47:00,
2013-05-30 04:52:00,45.9,34.8,29.79,East,95,0.0,0.0,65,0.00,,CLR,0.00,0.00,VWS V14.01,2013-05-30 11:52:00,
2013-05-30 04:57:00,45.8,34.3,29.80,East,95,0.0,0.0,64,0.00,,CLR,0.00,0.00,VWS V14.01,2013-05-30 11:57:00,
2013-05-30 05:01:00,45.5,34.0,29.80,East,95,0.0,0.0,64,0.00,,CLR,0.00,0.00,VWS V14.01,2013-05-30 12:01:00,
2013-05-30 05:06:00,45.2,33.8,29.80,East,95,0.0,0.0,64,0.00,,CLR,0.00,0.00,VWS V14.01,2013-05-30 12:06:00,
2013-05-30 05:11:00,45.1,34.0,29.80,East,95,0.0,0.0,65,0.00,,CLR,0.00,0.00,VWS V14.01,2013-05-30 12:11:00,
2013-05-30 05:17:00,44.9,33.5,29.81,East,95,0.0,0.0,64,0.00,,CLR,0.00,0.00,VWS V14.01,2013-05-30 12:17:00,
2013-05-30 05:22:00,44.7,34.4,29.81,East,95,0.0,0.0,67,0.00,,CLR,0.00,0.00,VWS V14.01,2013-05-30 12:22:00,
2013-05-30 05:27:00,44.5,34.6,29.81,East,95,0.0,0.0,68,0.00,,CLR,0.00,0.00,VWS V14.01,2013-05-30 12:27:00,
2013-05-30 05:32:00,44.3,34.0,29.81,East,95,0.0,0.0,67,0.00,,CLR,0.00,0.00,VWS V14.01,2013-05-30 12:32:00,
2013-05-30 05:37:00,44.1,33.9,29.81,East,95,0.0,0.0,67,0.00,,CLR,0.00,7.00,VWS V14.01,2013-05-30 12:37:00,
2013-05-30 05:42:00,43.9,33.7,29.82,East,95,0.0,0.0,67,0.00,,CLR,0.00,9.00,VWS V14.01,2013-05-30 12:42:00,
2013-05-30 05:47:00,43.7,33.8,29.82,East,95,0.0,0.0,68,0.00,,CLR,0.00,11.00,VWS V14.01,2013-05-30 12:47:00,
2013-05-30 05:52:00,43.6,34.5,29.82,East,95,0.0,0.0,70,0.00,,CLR,0.00,14.00,VWS V14.01,2013-05-30 12:52:00,
2013-05-30 05:57:00,43.5,34.7,29.82,East,95,0.0,0.0,71,0.00,,CLR,0.00,19.00,VWS V14.01,2013-05-30 12:57:00,
2013-05-30 06:02:00,43.5,35.1,29.82,East,95,0.0,0.0,72,0.00,,CLR,0.00,28.00,VWS V14.01,2013-05-30 13:02:00,
2013-05-30 06:07:00,43.6,35.2,29.83,East,95,0.0,0.0,72,0.00,,CLR,0.00,37.00,VWS V14.01,2013-05-30 13:07:00,
2013-05-30 06:12:00,43.8,35.7,29.83,East,95,0.0,2.0,73,0.00,,CLR,0.00,47.00,VWS V14.01,2013-05-30 13:12:00,
2013-05-30 06:17:00,44.1,36.0,29.83,East,95,2.0,2.0,73,0.00,,CLR,0.00,60.00,VWS V14.01,2013-05-30 13:17:00,
2013-05-30 06:22:00,44.9,36.8,29.83,East,96,1.0,2.0,73,0.00,,CLR,0.00,74.00,VWS V14.01,2013-05-30 13:22:00,
2013-05-30 06:27:00,45.7,37.5,29.83,East,96,0.0,1.0,73,0.00,,FEW140,0.00,86.00,VWS V14.01,2013-05-30 13:27:00,
2013-05-30 06:32:00,46.7,37.8,29.83,SW,221,0.0,2.0,71,0.00,,FEW140,0.00,102.00,VWS V14.01,2013-05-30 13:32:00,
2013-05-30 06:37:00,47.7,38.0,29.83,WSW,258,3.0,3.0,69,0.00,,FEW140,0.00,118.00,VWS V14.01,2013-05-30 13:37:00,
2013-05-30 06:42:00,48.5,38.1,29.83,WSW,258,0.0,1.0,67,0.00,,FEW140,0.00,135.00,VWS V14.01,2013-05-30 13:42:00,
2013-05-30 06:47:00,49.3,38.0,29.83,WSW,258,3.0,3.0,65,0.00,,FEW140,0.00,151.00,VWS V14.01,2013-05-30 13:47:00,
2013-05-30 06:52:00,50.2,37.7,29.84,WSW,258,1.0,3.0,62,0.00,,FEW140,0.00,171.00,VWS V14.01,2013-05-30 13:52:00,
2013-05-30 06:57:00,51.1,37.7,29.84,WSW,258,0.0,1.0,60,0.00,,FEW140,0.00,186.00,VWS V14.01,2013-05-30 13:57:00,
2013-05-30 07:02:00,52.4,38.1,29.84,WSW,258,0.0,0.0,58,0.00,,FEW140,0.00,200.00,VWS V14.01,2013-05-30 14:02:00,
2013-05-30 07:07:00,53.5,38.2,29.84,WSW,258,0.0,1.0,56,0.00,,FEW140,0.00,216.00,VWS V14.01,2013-05-30 14:07:00,
2013-05-30 07:12:00,54.4,38.1,29.84,WSW,258,0.0,2.0,54,0.00,,FEW140,0.00,232.00,VWS V14.01,2013-05-30 14:12:00,
2013-05-30 07:17:00,55.3,38.0,29.84,West,259,3.0,4.0,52,0.00,,FEW140,0.00,248.00,VWS V14.01,2013-05-30 14:17:00,
2013-05-30 07:22:00,56.2,37.8,29.84,West,281,4.0,4.0,50,0.00,,FEW140,0.00,264.00,VWS V14.01,2013-05-30 14:22:00,
2013-05-30 07:27:00,56.8,37.3,29.84,West,269,2.0,4.0,48,0.00,,FEW140,0.00,279.00,VWS V14.01,2013-05-30 14:27:00,
2013-05-30 07:32:00,57.5,36.9,29.84,WNW,296,3.0,5.0,46,0.00,,FEW140,0.00,297.00,VWS V14.01,2013-05-30 14:32:00,
2013-05-30 07:37:00,58.0,35.7,29.84,NW,315,5.0,6.0,43,0.00,,FEW140,0.00,313.00,VWS V14.01,2013-05-30 14:37:00,
2013-05-30 07:42:00,58.4,34.8,29.84,WNW,289,4.0,6.0,41,0.00,,FEW140,0.00,327.00,VWS V14.01,2013-05-30 14:42:00,
2013-05-30 07:47:00,58.9,35.3,29.84,NW,311,3.0,4.0,41,0.00,,FEW140,0.00,343.00,VWS V14.01,2013-05-30 14:47:00,
2013-05-30 07:52:00,59.7,34.7,29.84,NNW,337,2.0,5.0,39,0.00,,FEW140,0.00,359.00,VWS V14.01,2013-05-30 14:52:00,
2013-05-30 07:57:00,60.1,34.4,29.84,NNW,340,3.0,3.0,38,0.00,,FEW140,0.00,374.00,VWS V14.01,2013-05-30 14:57:00,
2013-05-30 08:02:00,60.3,33.9,29.84,North,355,3.0,5.0,37,0.00,,FEW280,0.00,392.00,VWS V14.01,2013-05-30 15:02:00,
2013-05-30 08:07:00,60.7,34.3,29.84,North,350,4.0,5.0,37,0.00,,FEW280,0.00,406.00,VWS V14.01,2013-05-30 15:07:00,
2013-05-30 08:12:00,61.0,33.9,29.84,NNW,346,2.0,5.0,36,0.00,,FEW280,0.00,420.00,VWS V14.01,2013-05-30 15:12:00,
2013-05-30 08:17:00,61.5,32.9,29.84,NNE,30,7.0,9.0,34,0.00,,FEW280,0.00,436.00,VWS V14.01,2013-05-30 15:17:00,
2013-05-30 08:22:00,61.1,33.3,29.84,NNE,31,3.0,5.0,35,0.00,,FEW280,0.00,452.00,VWS V14.01,2013-05-30 15:22:00,
2013-05-30 08:27:00,61.4,32.8,29.84,North,5,3.0,5.0,34,0.00,,FEW280,0.00,468.00,VWS V14.01,2013-05-30 15:27:00,
2013-05-30 08:32:00,62.0,33.3,29.84,NNE,17,3.0,6.0,34,0.00,,FEW280,0.00,483.00,VWS V14.01,2013-05-30 15:32:00,
2013-05-30 08:37:00,62.3,32.1,29.84,NNW,334,1.0,4.0,32,0.00,,FEW280,0.00,497.00,VWS V14.01,2013-05-30 15:37:00,
2013-05-30 08:42:00,62.8,32.5,29.84,NE,39,5.0,7.0,32,0.00,,FEW280,0.00,513.00,VWS V14.01,2013-05-30 15:42:00,
2013-05-30 08:47:00,63.2,32.1,29.84,NNE,26,3.0,7.0,31,0.00,,FEW280,0.00,529.00,VWS V14.01,2013-05-30 15:47:00,
2013-05-30 08:52:00,63.4,32.3,29.84,NNE,19,4.0,4.0,31,0.00,,FEW280,0.00,541.00,VWS V14.01,2013-05-30 15:52:00,
2013-05-30 08:57:00,63.9,31.9,29.83,NNE,19,0.0,1.0,30,0.00,,FEW280,0.00,557.00,VWS V14.01,2013-05-30 15:57:00,
2013-05-30 09:02:00,64.5,32.4,29.83,NE,34,2.0,2.0,30,0.00,,FEW280,0.00,570.00,VWS V14.01,2013-05-30 16:02:00,
2013-05-30 09:07:00,65.0,32.0,29.83,North,9,1.0,4.0,29,0.00,,FEW280,0.00,587.00,VWS V14.01,2013-05-30 16:07:00,
2013-05-30 09:12:00,65.0,32.0,29.83,NW,313,1.0,5.0,29,0.00,,FEW280,0.00,601.00,VWS V14.01,2013-05-30 16:12:00,
2013-05-30 09:17:00,65.0,32.0,29.83,NW,311,2.0,4.0,29,0.00,,FEW280,0.00,615.00,VWS V14.01,2013-05-30 16:17:00,
2013-05-30 09:22:00,65.2,32.2,29.83,NNW,342,3.0,4.0,29,0.00,,FEW280,0.00,626.00,VWS V14.01,2013-05-30 16:22:00,
2013-05-30 09:27:00,65.8,32.7,29.83,NNW,347,1.0,2.0,29,0.00,,FEW280,0.00,640.00,VWS V14.01,2013-05-30 16:27:00,
2013-05-30 09:32:00,66.5,32.4,29.83,NE,43,3.0,5.0,28,0.00,,FEW280,0.00,654.00,VWS V14.01,2013-05-30 16:32:00,
2013-05-30 09:37:00,66.5,31.5,29.83,NNE,17,6.0,6.0,27,0.00,,FEW280,0.00,666.00,VWS V14.01,2013-05-30 16:37:00,
2013-05-30 09:42:00,65.8,31.8,29.83,NNW,331,0.0,4.0,28,0.00,,FEW280,0.00,679.00,VWS V14.01,2013-05-30 16:42:00,
2013-05-30 09:47:00,66.6,32.5,29.83,ENE,67,5.0,5.0,28,0.00,,FEW280,0.00,694.00,VWS V14.01,2013-05-30 16:47:00,
2013-05-30 09:52:00,67.1,32.0,29.83,NE,40,4.0,6.0,27,0.00,,FEW280,0.00,705.00,VWS V14.01,2013-05-30 16:52:00,
2013-05-30 09:57:00,67.2,32.1,29.83,North,10,3.0,7.0,27,0.00,,FEW280,0.00,719.00,VWS V14.01,2013-05-30 16:57:00,
2013-05-30 10:02:00,67.5,31.4,29.83,NNE,18,0.0,2.0,26,0.00,,FEW280,0.00,728.00,VWS V14.01,2013-05-30 17:02:00,
2013-05-30 10:07:00,68.5,32.3,29.82,NE,40,1.0,2.0,26,0.00,,FEW280,0.00,740.00,VWS V14.01,2013-05-30 17:07:00,
2013-05-30 10:12:00,68.5,31.3,29.82,NW,326,3.0,5.0,25,0.00,,FEW280,0.00,752.00,VWS V14.01,2013-05-30 17:12:00,
2013-05-30 10:17:00,68.2,32.0,29.82,WNW,284,4.0,4.0,26,0.00,,FEW280,0.00,766.00,VWS V14.01,2013-05-30 17:17:00,
2013-05-30 10:22:00,68.9,31.7,29.82,SSW,196,3.0,4.0,25,0.00,,FEW280,0.00,773.00,VWS V14.01,2013-05-30 17:22:00,
2013-05-30 10:27:00,69.3,31.0,29.82,NE,44,1.0,3.0,24,0.00,,FEW280,0.00,784.00,VWS V14.01,2013-05-30 17:27:00,
2013-05-30 10:32:00,69.4,31.1,29.82,ENE,60,1.0,4.0,24,0.00,,FEW280,0.00,793.00,VWS V14.01,2013-05-30 17:32:00,
2013-05-30 10:37:00,69.9,32.5,29.82,SSW,192,0.0,3.0,25,0.00,,FEW280,0.00,805.00,VWS V14.01,2013-05-30 17:37:00,
2013-05-30 10:42:00,69.2,30.9,29.82,WSW,249,4.0,9.0,24,0.00,,FEW280,0.00,817.00,VWS V14.01,2013-05-30 17:42:00,
2013-05-30 10:47:00,69.0,30.7,29.82,SSW,196,1.0,7.0,24,0.00,,FEW280,0.00,823.00,VWS V14.01,2013-05-30 17:47:00,
2013-05-30 10:52:00,69.4,30.0,29.82,South,189,4.0,6.0,23,0.00,,FEW280,0.00,833.00,VWS V14.01,2013-05-30 17:52:00,
2013-05-30 10:57:00,70.5,31.0,29.82,SE,139,1.0,3.0,23,0.00,,FEW280,0.00,842.00,VWS V14.01,2013-05-30 17:57:00,
2013-05-30 11:02:00,70.9,31.3,29.82,SSW,202,3.0,6.0,23,0.00,,FEW280,0.00,853.00,VWS V14.01,2013-05-30 18:02:00,
2013-05-30 11:07:00,70.4,30.9,29.82,South,170,2.0,7.0,23,0.00,,FEW280,0.00,856.00,VWS V14.01,2013-05-30 18:07:00,
2013-05-30 11:12:00,70.4,30.9,29.81,SW,219,0.0,5.0,23,0.00,,FEW280,0.00,867.00,VWS V14.01,2013-05-30 18:12:00,
2013-05-30 11:17:00,71.1,30.4,29.82,South,169,3.0,8.0,22,0.00,,FEW280,0.00,874.00,VWS V14.01,2013-05-30 18:17:00,
2013-05-30 11:22:00,70.3,30.8,29.82,SSE,159,2.0,6.0,23,0.00,,FEW280,0.00,881.00,VWS V14.01,2013-05-30 18:22:00,
2013-05-30 11:27:00,70.5,29.9,29.82,ESE,104,2.0,3.0,22,0.00,,FEW280,0.00,888.00,VWS V14.01,2013-05-30 18:27:00,
2013-05-30 11:32:00,71.0,30.3,29.82,ENE,78,1.0,4.0,22,0.00,,FEW280,0.00,895.00,VWS V14.01,2013-05-30 18:32:00,
2013-05-30 11:37:00,72.2,30.1,29.82,SSE,155,5.0,5.0,21,0.00,,FEW280,0.00,900.00,VWS V14.01,2013-05-30 18:37:00,
2013-05-30 11:42:00,72.3,29.0,29.81,WSW,242,4.0,7.0,20,0.00,,FEW280,0.00,911.00,VWS V14.01,2013-05-30 18:42:00,
2013-05-30 11:47:00,72.3,27.8,29.81,SSW,206,1.0,3.0,19,0.00,,FEW280,0.00,912.00,VWS V14.01,2013-05-30 18:47:00,
2013-05-30 11:52:00,73.3,27.3,29.81,SE,146,0.0,4.0,18,0.00,,FEW280,0.00,921.00,VWS V14.01,2013-05-30 18:52:00,
2013-05-30 11:57:00,73.7,27.6,29.81,WNW,283,0.0,7.0,18,0.00,,FEW280,0.00,926.00,VWS V14.01,2013-05-30 18:57:00,
2013-05-30 12:02:00,73.9,27.8,29.81,South,169,4.0,5.0,18,0.00,,FEW280,0.00,926.00,VWS V14.01,2013-05-30 19:02:00,
2013-05-30 12:07:00,72.2,26.4,29.81,SW,234,7.0,8.0,18,0.00,,FEW280,0.00,932.00,VWS V14.01,2013-05-30 19:07:00,
2013-05-30 12:12:00,72.9,27.0,29.81,West,265,2.0,7.0,18,0.00,,FEW280,0.00,935.00,VWS V14.01,2013-05-30 19:12:00,
2013-05-30 12:17:00,73.6,27.5,29.81,WNW,296,3.0,5.0,18,0.00,,FEW280,0.00,942.00,VWS V14.01,2013-05-30 19:17:00,
2013-05-30 12:22:00,74.4,28.2,29.80,NW,320,3.0,3.0,18,0.00,,FEW280,0.00,935.00,VWS V14.01,2013-05-30 19:22:00,
2013-05-30 12:27:00,75.1,27.4,29.80,WSW,254,0.0,7.0,17,0.00,,FEW280,0.00,944.00,VWS V14.01,2013-05-30 19:27:00,
2013-05-30 12:32:00,74.6,27.0,29.80,North,360,2.0,5.0,17,0.00,,FEW280,0.00,946.00,VWS V14.01,2013-05-30 19:32:00,
2013-05-30 12:37:00,74.9,27.2,29.79,ENE,57,0.0,5.0,17,0.00,,FEW280,0.00,949.00,VWS V14.01,2013-05-30 19:37:00,
2013-05-30 12:42:00,75.5,26.2,29.79,ENE,78,7.0,9.0,16,0.00,,FEW280,0.00,951.00,VWS V14.01,2013-05-30 19:42:00,
2013-05-30 12:47:00,75.8,26.5,29.79,NE,42,6.0,9.0,16,0.00,,FEW280,0.00,954.00,VWS V14.01,2013-05-30 19:47:00,
2013-05-30 12:52:00,75.1,24.3,29.78,ESE,108,2.0,6.0,15,0.00,,FEW280,0.00,951.00,VWS V14.01,2013-05-30 19:52:00,
2013-05-30 12:57:00,75.8,24.9,29.78,NNW,342,8.0,8.0,15,0.00,,FEW280,0.00,951.00,VWS V14.01,2013-05-30 19:57:00,
2013-05-30 13:02:00,76.0,23.4,29.78,NNW,333,4.0,9.0,14,0.00,,FEW280,0.00,953.00,VWS V14.01,2013-05-30 20:02:00,
2013-05-30 13:07:00,75.5,24.7,29.78,ENE,59,4.0,4.0,15,0.00,,FEW280,0.00,946.00,VWS V14.01,2013-05-30 20:07:00,
2013-05-30 13:12:00,75.7,23.2,29.78,NW,310,4.0,4.0,14,0.00,,FEW280,0.00,947.00,VWS V14.01,2013-05-30 20:12:00,
2013-05-30 13:17:00,76.4,22.0,29.78,ESE,118,3.0,9.0,13,0.00,,FEW280,0.00,947.00,VWS V14.01,2013-05-30 20:17:00,
2013-05-30 13:22:00,76.0,25.1,29.78,NNE,28,6.0,10.0,15,0.00,,FEW280,0.00,944.00,VWS V14.01,2013-05-30 20:22:00,
2013-05-30 13:27:00,75.3,24.5,29.78,WNW,295,8.0,8.0,15,0.00,,FEW280,0.00,939.00,VWS V14.01,2013-05-30 20:27:00,
2013-05-30 13:32:00,75.8,23.2,29.78,NW,321,0.0,7.0,14,0.00,,FEW280,0.00,939.00,VWS V14.01,2013-05-30 20:32:00,
2013-05-30 13:37:00,76.8,22.3,29.78,NW,306,7.0,8.0,13,0.00,,FEW280,0.00,939.00,VWS V14.01,2013-05-30 20:37:00,
2013-05-30 13:42:00,77.3,22.7,29.78,West,277,0.0,5.0,13,0.00,,FEW280,0.00,935.00,VWS V14.01,2013-05-30 20:42:00,
2013-05-30 13:47:00,77.7,21.1,29.77,SW,217,0.0,5.0,12,0.00,,FEW280,0.00,932.00,VWS V14.01,2013-05-30 20:47:00,
2013-05-30 13:52:00,79.2,22.3,29.77,WSW,238,2.0,3.0,12,0.00,,FEW280,0.00,932.00,VWS V14.01,2013-05-30 20:52:00,
2013-05-30 13:57:00,78.4,19.6,29.77,NNW,347,3.0,6.0,11,0.00,,FEW280,0.00,926.00,VWS V14.01,2013-05-30 20:57:00,
2013-05-30 14:02:00,78.6,23.7,29.77,SSE,163,2.0,3.0,13,0.00,,FEW280,0.00,918.00,VWS V14.01,2013-05-30 21:02:00,
2013-05-30 14:07:00,79.8,24.6,29.77,SE,142,3.0,8.0,13,0.00,,FEW280,0.00,911.00,VWS V14.01,2013-05-30 21:07:00,
2013-05-30 14:12:00,79.4,22.4,29.76,SSE,155,2.0,6.0,12,0.00,,FEW280,0.00,909.00,VWS V14.01,2013-05-30 21:12:00,
2013-05-30 14:17:00,79.0,24.0,29.76,NE,56,4.0,5.0,13,0.00,,FEW280,0.00,902.00,VWS V14.01,2013-05-30 21:17:00,
2013-05-30 14:22:00,79.3,22.3,29.76,SW,219,2.0,5.0,12,0.00,,FEW280,0.00,896.00,VWS V14.01,2013-05-30 21:22:00,
2013-05-30 14:27:00,78.7,23.8,29.76,NE,42,3.0,8.0,13,0.00,,FEW280,0.00,886.00,VWS V14.01,2013-05-30 21:27:00,
2013-05-30 14:32:00,78.6,25.5,29.76,NE,52,1.0,4.0,14,0.00,,FEW280,0.00,879.00,VWS V14.01,2013-05-30 21:32:00,
2013-05-30 14:37:00,79.9,22.8,29.76,North,355,2.0,7.0,12,0.00,,FEW280,0.00,875.00,VWS V14.01,2013-05-30 21:37:00,
2013-05-30 14:42:00,79.6,22.6,29.76,NE,34,2.0,9.0,12,0.00,,FEW280,0.00,867.00,VWS V14.01,2013-05-30 21:42:00,
2013-05-30 14:47:00,79.6,22.6,29.75,NNW,327,0.0,7.0,12,0.00,,FEW280,0.00,858.00,VWS V14.01,2013-05-30 21:47:00,
2013-05-30 14:52:00,79.6,20.5,29.75,NNE,32,7.0,11.0,11,0.00,,FEW280,0.00,849.00,VWS V14.01,2013-05-30 21:52:00,
2013-05-30 14:57:00,78.7,19.8,29.75,NNW,331,4.0,7.0,11,0.00,,FEW280,0.00,842.00,VWS V14.01,2013-05-30 21:57:00,
2013-05-30 15:02:00,79.2,20.2,29.75,NW,321,2.0,8.0,11,0.00,,FEW280,0.00,833.00,VWS V14.01,2013-05-30 22:02:00,
2013-05-30 15:07:00,79.5,20.4,29.75,NNE,12,6.0,12.0,11,0.00,,FEW280,0.00,824.00,VWS V14.01,2013-05-30 22:07:00,
2013-05-30 15:12:00,79.1,20.1,29.75,North,355,4.0,7.0,11,0.00,,FEW280,0.00,816.00,VWS V14.01,2013-05-30 22:12:00,
2013-05-30 15:17:00,79.5,20.4,29.74,South,186,0.0,3.0,11,0.00,,FEW280,0.00,805.00,VWS V14.01,2013-05-30 22:17:00,
2013-05-30 15:22:00,80.7,19.1,29.74,NE,36,4.0,9.0,10,0.00,,FEW280,0.00,795.00,VWS V14.01,2013-05-30 22:22:00,
2013-05-30 15:27:00,80.0,18.6,29.74,NW,312,1.0,10.0,10,0.00,,FEW280,0.00,784.00,VWS V14.01,2013-05-30 22:27:00,
2013-05-30 15:32:00,80.4,18.9,29.74,ENE,76,0.0,3.0,10,0.00,,FEW280,0.00,772.00,VWS V14.01,2013-05-30 22:32:00,
2013-05-30 15:37:00,81.6,19.8,29.74,SSW,212,1.0,4.0,10,0.00,,FEW280,0.00,761.00,VWS V14.01,2013-05-30 22:37:00,
2013-05-30 15:42:00,81.1,19.4,29.74,NNW,327,0.0,5.0,10,0.00,,FEW280,0.00,752.00,VWS V14.01,2013-05-30 22:42:00,
2013-05-30 15:47:00,81.7,19.9,29.74,SW,217,4.0,4.0,10,0.00,,FEW280,0.00,742.00,VWS V14.01,2013-05-30 22:47:00,
2013-05-30 15:52:00,82.1,17.7,29.73,South,184,0.0,3.0,9,0.00,,FEW280,0.00,728.00,VWS V14.01,2013-05-30 22:52:00,
2013-05-30 15:57:00,82.2,17.8,29.73,NNE,26,4.0,7.0,9,0.00,,FEW280,0.00,717.00,VWS V14.01,2013-05-30 22:57:00,
2013-05-30 16:02:00,81.0,16.9,29.73,North,349,2.0,9.0,9,0.00,,FEW280,0.00,705.00,VWS V14.01,2013-05-30 23:02:00,
2013-05-30 16:07:00,80.6,16.6,29.73,NW,319,4.0,8.0,9,0.00,,FEW280,0.00,691.00,VWS V14.01,2013-05-30 23:07:00,
2013-05-30 16:12:00,80.0,18.6,29.73,ESE,116,1.0,3.0,10,0.00,,FEW280,0.00,677.00,VWS V14.01,2013-05-30 23:12:00,
2013-05-30 16:17:00,81.4,17.2,29.73,SW,231,4.0,6.0,9,0.00,,FEW280,0.00,668.00,VWS V14.01,2013-05-30 23:17:00,
2013-05-30 16:22:00,81.6,17.4,29.73,North,5,1.0,5.0,9,0.00,,FEW280,0.00,656.00,VWS V14.01,2013-05-30 23:22:00,
2013-05-30 16:27:00,81.4,17.2,29.72,SSE,159,2.0,5.0,9,0.00,,FEW280,0.00,640.00,VWS V14.01,2013-05-30 23:27:00,
2013-05-30 16:32:00,81.8,17.5,29.72,NE,50,2.0,6.0,9,0.00,,FEW280,0.00,624.00,VWS V14.01,2013-05-30 23:32:00,
2013-05-30 16:37:00,82.5,18.0,29.72,ESE,112,5.0,7.0,9,0.00,,FEW280,0.00,612.00,VWS V14.01,2013-05-30 23:37:00,
2013-05-30 16:42:00,82.8,18.3,29.72,ENE,73,3.0,8.0,9,0.00,,FEW280,0.00,596.00,VWS V14.01,2013-05-30 23:42:00,
2013-05-30 16:47:00,82.0,17.7,29.72,NE,34,4.0,8.0,9,0.00,,FEW280,0.00,582.00,VWS V14.01,2013-05-30 23:47:00,
2013-05-30 16:52:00,81.6,19.8,29.72,NE,48,2.0,5.0,10,0.00,,FEW280,0.00,566.00,VWS V14.01,2013-05-30 23:52:00,
2013-05-30 16:57:00,81.8,17.5,29.72,SW,217,1.0,4.0,9,0.00,,FEW280,0.00,554.00,VWS V14.01,2013-05-30 23:57:00,
2013-05-30 17:02:00,81.8,17.5,29.72,ENE,57,5.0,8.0,9,0.00,,FEW200,0.00,538.00,VWS V14.01,2013-05-31 00:02:00,
2013-05-30 17:07:00,81.4,19.7,29.72,NE,39,2.0,7.0,10,0.00,,FEW200,0.00,522.00,VWS V14.01,2013-05-31 00:07:00,
2013-05-30 17:12:00,81.8,20.0,29.72,NW,312,5.0,11.0,10,0.00,,FEW200,0.00,512.00,VWS V14.01,2013-05-31 00:12:00,
2013-05-30 17:17:00,81.9,20.0,29.72,WNW,292,3.0,7.0,10,0.00,,FEW200,0.00,496.00,VWS V14.01,2013-05-31 00:17:00,
2013-05-30 17:22:00,81.3,19.6,29.72,WNW,300,0.0,10.0,10,0.00,,FEW200,0.00,482.00,VWS V14.01,2013-05-31 00:22:00,
2013-05-30 17:27:00,81.3,19.6,29.72,NW,305,4.0,14.0,10,0.00,,FEW200,0.00,466.00,VWS V14.01,2013-05-31 00:27:00,
2013-05-30 17:32:00,81.3,19.6,29.72,NNW,331,10.0,16.0,10,0.00,,FEW200,0.00,450.00,VWS V14.01,2013-05-31 00:32:00,
2013-05-30 17:37:00,80.7,21.4,29.72,North,355,4.0,8.0,11,0.00,,FEW200,0.00,432.00,VWS V14.01,2013-05-31 00:37:00,
2013-05-30 17:42:00,80.5,21.2,29.72,NNW,333,4.0,9.0,11,0.00,,FEW200,0.00,417.00,VWS V14.01,2013-05-31 00:42:00,
2013-05-30 17:47:00,80.6,21.3,29.72,North,355,11.0,12.0,11,0.00,,FEW200,0.00,401.00,VWS V14.01,2013-05-31 00:47:00,
2013-05-30 17:52:00,80.2,21.0,29.72,NNW,348,10.0,10.0,11,0.00,,FEW200,0.00,388.00,VWS V14.01,2013-05-31 00:52:00,
2013-05-30 17:57:00,79.9,20.8,29.72,NW,317,13.0,19.0,11,0.00,,FEW200,0.00,371.00,VWS V14.01,2013-05-31 00:57:00,
2013-05-30 18:02:00,79.5,22.5,29.72,NNW,333,11.0,14.0,12,0.00,,FEW220,0.00,353.00,VWS V14.01,2013-05-31 01:02:00,
2013-05-30 18:07:00,78.9,20.0,29.72,NNW,338,11.0,18.0,11,0.00,,FEW220,0.00,336.00,VWS V14.01,2013-05-31 01:07:00,
2013-05-30 18:12:00,79.0,22.1,29.72,NNW,329,3.0,14.0,12,0.00,,FEW220,0.00,322.00,VWS V14.01,2013-05-31 01:12:00,
2013-05-30 18:17:00,79.3,20.3,29.72,WNW,302,8.0,14.0,11,0.00,,FEW220,0.00,306.00,VWS V14.01,2013-05-31 01:17:00,
2013-05-30 18:22:00,78.9,22.0,29.72,NNW,339,6.0,15.0,12,0.00,,FEW220,0.00,292.00,VWS V14.01,2013-05-31 01:22:00,
2013-05-30 18:28:00,78.4,19.6,29.73,NW,309,13.0,13.0,11,0.00,,FEW220,0.00,278.00,VWS V14.01,2013-05-31 01:28:00,
2013-05-30 18:33:00,78.2,19.4,29.73,NW,313,12.0,15.0,11,0.00,,FEW220,0.00,267.00,VWS V14.01,2013-05-31 01:33:00,
2013-05-30 18:38:00,78.0,21.3,29.73,NW,317,9.0,14.0,12,0.00,,FEW220,0.00,246.00,VWS V14.01,2013-05-31 01:38:00,
2013-05-30 18:43:00,78.1,21.4,29.73,NNW,342,5.0,13.0,12,0.00,,FEW220,0.00,227.00,VWS V14.01,2013-05-31 01:43:00,
2013-05-30 18:48:00,78.2,21.5,29.74,North,351,7.0,11.0,12,0.00,,FEW220,0.00,207.00,VWS V14.01,2013-05-31 01:48:00,
2013-05-30 18:53:00,78.2,21.5,29.74,NW,314,5.0,11.0,12,0.00,,FEW220,0.00,188.00,VWS V14.01,2013-05-31 01:53:00,
2013-05-30 18:58:00,77.7,21.1,29.74,NW,308,7.0,11.0,12,0.00,,FEW220,0.00,169.00,VWS V14.01,2013-05-31 01:58:00,
2013-05-30 19:03:00,77.5,20.9,29.74,NW,309,6.0,15.0,12,0.00,,SCT220,0.00,153.00,VWS V14.01,2013-05-31 02:03:00,
2013-05-30 19:08:00,77.4,20.9,29.74,NNW,333,9.0,12.0,12,0.00,,SCT220,0.00,137.00,VWS V14.01,2013-05-31 02:08:00,
2013-05-30 19:13:00,77.3,20.8,29.74,NNW,328,8.0,12.0,12,0.00,,SCT220,0.00,118.00,VWS V14.01,2013-05-31 02:13:00,
2013-05-30 19:18:00,76.9,20.5,29.74,NNW,329,6.0,12.0,12,0.00,,SCT220,0.00,102.00,VWS V14.01,2013-05-31 02:18:00,
2013-05-30 19:23:00,76.5,22.0,29.74,NW,322,10.0,15.0,13,0.00,,SCT220,0.00,86.00,VWS V14.01,2013-05-31 02:23:00,
2013-05-30 19:28:00,76.2,21.8,29.75,WNW,296,7.0,12.0,13,0.00,,SCT220,0.00,74.00,VWS V14.01,2013-05-31 02:28:00,
2013-05-30 19:33:00,76.1,25.1,29.75,NW,309,8.0,15.0,15,0.00,,SCT220,0.00,58.00,VWS V14.01,2013-05-31 02:33:00,
2013-05-30 19:38:00,75.8,24.9,29.75,NNW,340,5.0,9.0,15,0.00,,SCT220,0.00,49.00,VWS V14.01,2013-05-31 02:38:00,
2013-05-30 19:43:00,75.4,26.1,29.75,North,360,3.0,11.0,16,0.00,,SCT220,0.00,35.00,VWS V14.01,2013-05-31 02:43:00,
2013-05-30 19:48:00,75.0,25.8,29.76,NNW,336,7.0,12.0,16,0.00,,SCT220,0.00,25.00,VWS V14.01,2013-05-31 02:48:00,
2013-05-30 19:53:00,74.6,27.0,29.76,North,360,4.0,11.0,17,0.00,,SCT220,0.00,16.00,VWS V14.01,2013-05-31 02:53:00,
2013-05-30 19:58:00,74.3,26.7,29.76,NNW,341,5.0,9.0,17,0.00,,SCT220,0.00,14.00,VWS V14.01,2013-05-31 02:58:00,
2013-05-30 20:03:00,74.0,26.5,29.76,NNW,336,6.0,11.0,17,0.00,,SCT220,0.00,11.00,VWS V14.01,2013-05-31 03:03:00,
2013-05-30 20:08:00,73.7,26.2,29.76,NNW,346,5.0,11.0,17,0.00,,CLR,0.00,9.00,VWS V14.01,2013-05-31 03:08:00,
2013-05-30 20:13:00,73.3,27.3,29.76,NNW,338,3.0,5.0,18,0.00,,CLR,0.00,5.00,VWS V14.01,2013-05-31 03:13:00,
2013-05-30 20:18:00,72.8,28.2,29.76,North,11,3.0,5.0,19,0.00,,CLR,0.00,0.00,VWS V14.01,2013-05-31 03:18:00,
2013-05-30 20:23:00,72.3,27.8,29.77,NNW,327,2.0,5.0,19,0.00,,CLR,0.00,0.00,VWS V14.01,2013-05-31 03:23:00,
2013-05-30 20:28:00,71.8,27.4,29.77,NW,306,1.0,5.0,19,0.00,,CLR,0.00,0.00,VWS V14.01,2013-05-31 03:28:00,
2013-05-30 20:33:00,71.4,27.0,29.77,NW,322,2.0,4.0,19,0.00,,CLR,0.00,0.00,VWS V14.01,2013-05-31 03:33:00,
2013-05-30 20:38:00,71.1,26.8,29.77,NW,319,1.0,4.0,19,0.00,,CLR,0.00,0.00,VWS V14.01,2013-05-31 03:38:00,
2013-05-30 20:43:00,70.7,26.5,29.77,NW,326,1.0,4.0,19,0.00,,CLR,0.00,0.00,VWS V14.01,2013-05-31 03:43:00,
2013-05-30 20:48:00,70.3,27.4,29.78,NW,313,5.0,6.0,20,0.00,,CLR,0.00,0.00,VWS V14.01,2013-05-31 03:48:00,
2013-05-30 20:53:00,70.2,27.3,29.78,WNW,298,5.0,6.0,20,0.00,,CLR,0.00,0.00,VWS V14.01,2013-05-31 03:53:00,
2013-05-30 20:58:00,70.0,27.1,29.78,NW,323,4.0,6.0,20,0.00,,CLR,0.00,0.00,VWS V14.01,2013-05-31 03:58:00,
2013-05-30 21:01:00,69.9,27.0,29.79,NW,306,3.0,4.0,20,0.00,,SCT200,0.00,0.00,VWS V14.01,2013-05-31 04:01:00,
2013-05-30 21:02:00,69.9,27.0,29.79,NNW,330,1.0,5.0,20,0.00,,SCT200,0.00,0.00,VWS V14.01,2013-05-31 04:02:00,
2013-05-30 21:07:00,69.7,28.0,29.79,NW,325,3.0,4.0,21,0.00,,SCT200,0.00,0.00,VWS V14.01,2013-05-31 04:07:00,
2013-05-30 21:12:00,69.6,28.0,29.79,NW,319,4.0,9.0,21,0.00,,SCT200,0.00,0.00,VWS V14.01,2013-05-31 04:12:00,
2013-05-30 21:17:00,69.7,28.0,29.80,NW,304,4.0,9.0,21,0.00,,SCT200,0.00,0.00,VWS V14.01,2013-05-31 04:17:00,
2013-05-30 21:22:00,69.7,28.0,29.80,NW,310,6.0,10.0,21,0.00,,SCT200,0.00,0.00,VWS V14.01,2013-05-31 04:22:00,
2013-05-30 21:27:00,69.7,28.0,29.81,NW,310,2.0,7.0,21,0.00,,SCT200,0.00,0.00,VWS V14.01,2013-05-31 04:27:00,
2013-05-30 21:32:00,69.4,28.9,29.81,WNW,293,6.0,11.0,22,0.00,,SCT200,0.00,0.00,VWS V14.01,2013-05-31 04:32:00,
2013-05-30 21:37:00,69.2,28.8,29.81,West,279,4.0,11.0,22,0.00,,SCT200,0.00,0.00,VWS V14.01,2013-05-31 04:37:00,
2013-05-30 21:42:00,69.0,28.6,29.81,NNW,331,10.0,16.0,22,0.00,,SCT200,0.00,0.00,VWS V14.01,2013-05-31 04:42:00,
2013-05-30 21:47:00,68.8,28.4,29.81,WNW,296,7.0,14.0,22,0.00,,SCT200,0.00,0.00,VWS V14.01,2013-05-31 04:47:00,
2013-05-30 21:52:00,68.6,28.3,29.82,NW,306,11.0,15.0,22,0.00,,SCT200,0.00,0.00,VWS V14.01,2013-05-31 04:52:00,
2013-05-30 21:57:00,68.4,29.2,29.82,West,279,9.0,17.0,23,0.00,,SCT200,0.00,0.00,VWS V14.01,2013-05-31 04:57:00,
2013-05-30 22:02:00,68.3,29.1,29.82,NNW,331,9.0,13.0,23,0.00,,FEW060,0.00,0.00,VWS V14.01,2013-05-31 05:02:00,
2013-05-30 22:07:00,68.1,28.9,29.82,WNW,303,9.0,14.0,23,0.00,,FEW060,0.00,0.00,VWS V14.01,2013-05-31 05:07:00,
2013-05-30 22:12:00,67.9,28.8,29.82,WNW,293,16.0,16.0,23,0.00,,FEW060,0.00,0.00,VWS V14.01,2013-05-31 05:12:00,
2013-05-30 22:17:00,67.7,29.6,29.83,NW,321,9.0,14.0,24,0.00,,FEW060,0.00,0.00,VWS V14.01,2013-05-31 05:17:00,
2013-05-30 22:21:00,67.4,29.4,29.82,NNW,333,5.0,15.0,24,0.00,,FEW060,0.00,0.00,VWS V14.01,2013-05-31 05:21:00,
2013-05-30 22:26:00,67.1,30.1,29.83,NW,319,8.0,11.0,25,0.00,,FEW060,0.00,0.00,VWS V14.01,2013-05-31 05:26:00,
2013-05-30 22:31:00,66.9,30.0,29.83,NNW,333,6.0,8.0,25,0.00,,FEW060,0.00,0.00,VWS V14.01,2013-05-31 05:31:00,
2013-05-30 22:36:00,66.7,29.8,29.83,NNW,329,6.0,13.0,25,0.00,,FEW060,0.00,0.00,VWS V14.01,2013-05-31 05:36:00,
2013-05-30 22:41:00,66.4,29.5,29.83,NW,323,7.0,11.0,25,0.00,,FEW060,0.00,0.00,VWS V14.01,2013-05-31 05:41:00,
2013-05-30 22:47:00,65.8,30.0,29.84,NNE,27,6.0,11.0,26,0.00,,FEW060,0.00,0.00,VWS V14.01,2013-05-31 05:47:00,
2013-05-30 22:52:00,65.2,30.4,29.84,NW,312,4.0,7.0,27,0.00,,FEW060,0.00,0.00,VWS V14.01,2013-05-31 05:52:00,
2013-05-30 22:57:00,65.0,29.3,29.84,NW,323,10.0,14.0,26,0.00,,FEW060,0.00,0.00,VWS V14.01,2013-05-31 05:57:00,
2013-05-30 23:02:00,65.0,29.3,29.84,WNW,298,8.0,12.0,26,0.00,,CLR,0.00,0.00,VWS V14.01,2013-05-31 06:02:00,
2013-05-30 23:07:00,65.0,29.3,29.85,NW,319,4.0,14.0,26,0.00,,CLR,0.00,0.00,VWS V14.01,2013-05-31 06:07:00,
2013-05-30 23:12:00,64.9,28.3,29.85,NNW,327,6.0,9.0,25,0.00,,CLR,0.00,0.00,VWS V14.01,2013-05-31 06:12:00,
2013-05-30 23:17:00,64.8,28.2,29.85,North,350,4.0,7.0,25,0.00,,CLR,0.00,0.00,VWS V14.01,2013-05-31 06:17:00,
2013-05-30 23:22:00,64.1,27.6,29.86,NNW,327,5.0,6.0,25,0.00,,CLR,0.00,0.00,VWS V14.01,2013-05-31 06:22:00,
2013-05-30 23:27:00,63.6,27.2,29.86,NNW,333,8.0,8.0,25,0.00,,CLR,0.00,0.00,VWS V14.01,2013-05-31 06:27:00,
2013-05-30 23:32:00,63.6,26.2,29.86,NNW,348,3.0,6.0,24,0.00,,CLR,0.00,0.00,VWS V14.01,2013-05-31 06:32:00,
2013-05-30 23:37:00,63.2,25.8,29.87,NNE,17,3.0,4.0,24,0.00,,CLR,0.00,0.00,VWS V14.01,2013-05-31 06:37:00,
2013-05-30 23:42:00,62.7,26.4,29.87,NNE,15,2.0,3.0,25,0.00,,CLR,0.00,0.00,VWS V14.01,2013-05-31 06:42:00,
2013-05-30 23:47:00,62.3,26.1,29.87,North,11,1.0,3.0,25,0.00,,CLR,0.00,0.00,VWS V14.01,2013-05-31 06:47:00,
2013-05-30 23:52:00,61.9,23.7,29.88,NNE,19,1.0,3.0,23,0.00,,CLR,0.00,0.00,VWS V14.01,2013-05-31 06:52:00,
2013-05-30 23:57:00,61.4,24.3,29.88,NNE,15,1.0,3.0,24,0.00,,CLR,0.00,0.00,VWS V14.01,2013-05-31 06:57:00,